createdAt,value
2018-03-31T00:00:12.207Z,99335.73
2018-03-31T00:02:39.767Z,99343.87
2018-03-31T00:05:07.334Z,99351.53
2018-03-31T00:07:35.619Z,99344.73
2018-03-31T00:10:03.174Z,99344.78
2018-03-31T00:12:30.725Z,99343.89
2018-03-31T00:14:58.276Z,99348.17
2018-03-31T00:17:26.518Z,99346.84
2018-03-31T00:19:54.058Z,99350.06
2018-03-31T00:22:25.579Z,99357.05
2018-03-31T00:24:53.123Z,99352.41
2018-03-31T00:27:20.654Z,99354.95
2018-03-31T00:29:48.195Z,99351.94
2018-03-31T00:32:15.743Z,99351.84
2018-03-31T00:34:43.268Z,99341.45
2018-03-31T00:37:10.826Z,99339.20
2018-03-31T00:39:38.409Z,99341.48
2018-03-31T00:42:05.954Z,99333.38
2018-03-31T00:47:08.049Z,99332.91
2018-03-31T00:49:35.584Z,99327.13
2018-03-31T00:52:03.889Z,99320.04
2018-03-31T00:54:31.425Z,99328.05
2018-03-31T00:56:59.774Z,99326.75
2018-03-31T00:59:27.320Z,99335.77
2018-03-31T01:01:54.862Z,99338.83
2018-03-31T01:04:22.390Z,99341.34
2018-03-31T01:06:49.935Z,99337.37
2018-03-31T01:09:17.457Z,99347.30
2018-03-31T01:11:44.996Z,99345.20
2018-03-31T01:14:12.551Z,99340.20
2018-03-31T01:16:40.133Z,99339.09
2018-03-31T01:19:07.652Z,99339.89
2018-03-31T01:21:35.307Z,99341.82
2018-03-31T01:24:02.839Z,99344.61
2018-03-31T01:26:30.380Z,99348.59
2018-03-31T01:28:57.918Z,99355.56
2018-03-31T01:31:25.462Z,99354.52
2018-03-31T01:33:53.754Z,99353.63
2018-03-31T01:36:22.043Z,99350.64
2018-03-31T01:38:49.610Z,99358.06
2018-03-31T01:41:17.132Z,99348.48
2018-03-31T01:43:45.461Z,99349.56
2018-03-31T01:46:12.992Z,99348.11
2018-03-31T01:48:41.336Z,99346.48
2018-03-31T01:51:08.855Z,99343.42
2018-03-31T01:53:36.392Z,99345.06
2018-03-31T01:56:04.672Z,99350.75
2018-03-31T01:58:32.967Z,99347.20
2018-03-31T02:01:00.504Z,99347.64
2018-03-31T02:03:28.084Z,99350.61
2018-03-31T02:05:55.623Z,99349.16
2018-03-31T02:08:23.914Z,99343.60
2018-03-31T02:10:52.316Z,99341.90
2018-03-31T02:13:19.906Z,99351.81
2018-03-31T02:15:47.450Z,99352.61
2018-03-31T02:18:14.970Z,99344.95
2018-03-31T02:20:43.268Z,99352.14
2018-03-31T02:23:10.828Z,99348.55
2018-03-31T02:25:38.353Z,99352.34
2018-03-31T02:28:05.910Z,99358.31
2018-03-31T02:30:33.488Z,99356.67
2018-03-31T02:33:01.807Z,99353.21
2018-03-31T02:35:29.363Z,99355.00
2018-03-31T02:37:56.904Z,99363.91
2018-03-31T02:40:25.213Z,99357.11
2018-03-31T02:42:52.745Z,99353.31
2018-03-31T02:45:21.116Z,99349.83
2018-03-31T02:47:48.692Z,99358.02
2018-03-31T02:50:16.212Z,99352.48
2018-03-31T02:52:43.763Z,99353.97
2018-03-31T02:55:11.330Z,99356.97
2018-03-31T02:57:38.842Z,99358.13
2018-03-31T03:00:06.374Z,99354.88
2018-03-31T03:02:33.947Z,99361.70
2018-03-31T03:05:02.342Z,99365.53
2018-03-31T03:07:29.906Z,99364.30
2018-03-31T03:09:57.436Z,99366.55
2018-03-31T03:12:24.992Z,99367.67
2018-03-31T03:14:53.284Z,99372.38
2018-03-31T03:17:21.587Z,99372.78
2018-03-31T03:19:49.130Z,99373.22
2018-03-31T03:22:17.444Z,99370.48
2018-03-31T03:24:45.003Z,99366.97
2018-03-31T03:27:12.551Z,99371.48
2018-03-31T03:29:40.087Z,99371.87
2018-03-31T03:32:08.433Z,99377.00
2018-03-31T03:34:35.956Z,99376.13
2018-03-31T03:37:03.697Z,99379.27
2018-03-31T03:39:31.238Z,99385.19
2018-03-31T03:41:58.779Z,99382.86
2018-03-31T03:44:26.318Z,99383.14
2018-03-31T03:46:53.850Z,99400.72
2018-03-31T03:49:22.145Z,99401.19
2018-03-31T03:51:49.703Z,99400.33
2018-03-31T03:54:17.245Z,99395.09
2018-03-31T03:56:45.623Z,99395.09
2018-03-31T03:59:13.954Z,99400.52
2018-03-31T04:01:41.515Z,99396.16
2018-03-31T04:04:09.079Z,99398.44
2018-03-31T04:06:36.617Z,99400.76
2018-03-31T04:09:04.228Z,99401.34
2018-03-31T04:11:31.750Z,99398.95
2018-03-31T04:13:59.339Z,99402.86
2018-03-31T04:16:26.901Z,99396.39
2018-03-31T04:18:54.447Z,99392.45
2018-03-31T04:21:21.986Z,99394.00
2018-03-31T04:23:49.542Z,99385.42
2018-03-31T04:26:17.083Z,99390.86
2018-03-31T04:28:45.385Z,99391.02
2018-03-31T04:31:12.951Z,99389.97
2018-03-31T04:33:40.496Z,99389.13
2018-03-31T04:36:08.039Z,99389.31
2018-03-31T04:38:36.359Z,99387.67
2018-03-31T04:41:03.894Z,99397.51
2018-03-31T04:43:31.683Z,99393.33
2018-03-31T04:45:59.255Z,99389.34
2018-03-31T04:48:27.591Z,99386.27
2018-03-31T04:50:55.096Z,99379.67
2018-03-31T04:53:22.685Z,99377.63
2018-03-31T04:55:50.208Z,99382.25
2018-03-31T04:58:17.750Z,99387.41
2018-03-31T05:00:45.991Z,99394.75
2018-03-31T05:03:13.539Z,99397.09
2018-03-31T05:05:41.110Z,99394.33
2018-03-31T05:08:08.655Z,99397.27
2018-03-31T05:10:36.179Z,99391.20
2018-03-31T05:13:03.851Z,99390.99
2018-03-31T05:15:31.384Z,99393.63
2018-03-31T05:17:59.696Z,99400.66
2018-03-31T05:20:27.227Z,99403.09
2018-03-31T05:22:54.820Z,99402.79
2018-03-31T05:25:22.357Z,99402.12
2018-03-31T05:27:50.032Z,99404.13
2018-03-31T05:30:17.580Z,99399.98
2018-03-31T05:32:45.206Z,99396.98
2018-03-31T05:35:13.511Z,99390.41
2018-03-31T05:37:41.062Z,99398.66
2018-03-31T05:40:09.368Z,99392.39
2018-03-31T05:42:36.907Z,99399.90
2018-03-31T05:45:05.232Z,99406.37
2018-03-31T05:47:32.764Z,99403.22
2018-03-31T05:50:00.309Z,99406.48
2018-03-31T05:52:28.702Z,99407.48
2018-03-31T05:54:56.246Z,99410.39
2018-03-31T05:57:24.560Z,99407.58
2018-03-31T05:59:52.099Z,99410.23
2018-03-31T06:02:19.642Z,99410.30
2018-03-31T06:04:48.060Z,99408.79
2018-03-31T06:07:15.620Z,99407.16
2018-03-31T06:09:43.183Z,99407.19
2018-03-31T06:12:10.711Z,99400.64
2018-03-31T06:14:39.006Z,99402.45
2018-03-31T06:17:07.514Z,99397.35
2018-03-31T06:19:35.073Z,99396.52
2018-03-31T06:22:02.616Z,99394.09
2018-03-31T06:24:30.292Z,99398.38
2018-03-31T06:26:57.817Z,99397.08
2018-03-31T06:29:26.124Z,99408.09
2018-03-31T06:31:53.664Z,99410.49
2018-03-31T06:34:21.975Z,99415.00
2018-03-31T06:36:49.542Z,99413.20
2018-03-31T06:39:17.109Z,99413.50
2018-03-31T06:41:44.748Z,99417.78
2018-03-31T06:44:12.267Z,99418.48
2018-03-31T06:46:39.859Z,99418.12
2018-03-31T06:49:07.398Z,99419.47
2018-03-31T06:51:35.557Z,99426.73
2018-03-31T06:54:03.100Z,99433.51
2018-03-31T06:56:30.648Z,99435.19
2018-03-31T06:58:58.171Z,99434.24
2018-03-31T07:01:26.469Z,99432.95
2018-03-31T07:03:54.005Z,99434.01
2018-03-31T07:06:21.576Z,99433.73
2018-03-31T07:08:49.135Z,99441.09
2018-03-31T07:11:17.446Z,99435.40
2018-03-31T07:13:45.104Z,99435.79
2018-03-31T07:16:12.667Z,99429.91
2018-03-31T07:18:40.257Z,99436.56
2018-03-31T07:21:07.796Z,99438.70
2018-03-31T07:23:35.358Z,99442.61
2018-03-31T07:26:02.931Z,99436.70
2018-03-31T07:28:30.492Z,99430.88
2018-03-31T07:30:58.027Z,99432.16
2018-03-31T07:33:26.519Z,99438.73
2018-03-31T07:35:54.066Z,99442.22
2018-03-31T07:38:22.384Z,99444.32
2018-03-31T07:40:49.907Z,99439.53
2018-03-31T07:43:17.535Z,99442.52
2018-03-31T07:45:45.081Z,99442.03
2018-03-31T07:48:12.615Z,99443.23
2018-03-31T07:50:40.298Z,99447.15
2018-03-31T07:53:07.960Z,99448.53
2018-03-31T07:55:35.591Z,99451.95
2018-03-31T07:58:04.080Z,99452.31
2018-03-31T08:00:31.649Z,99447.63
2018-03-31T08:02:59.246Z,99445.96
2018-03-31T08:05:27.010Z,99449.27
2018-03-31T08:07:55.361Z,99445.18
2018-03-31T08:10:22.895Z,99449.97
2018-03-31T08:12:51.257Z,99441.39
2018-03-31T08:15:18.828Z,99445.64
2018-03-31T08:17:47.123Z,99442.34
2018-03-31T08:20:14.688Z,99435.55
2018-03-31T08:22:42.248Z,99435.95
2018-03-31T08:25:09.852Z,99431.58
2018-03-31T08:27:37.389Z,99431.81
2018-03-31T08:30:04.967Z,99431.58
2018-03-31T08:32:32.514Z,99434.22
2018-03-31T08:35:00.455Z,99431.59
2018-03-31T08:37:28.760Z,99429.64
2018-03-31T08:39:56.316Z,99431.23
2018-03-31T08:42:23.854Z,99435.96
2018-03-31T08:44:52.189Z,99430.73
2018-03-31T08:47:19.925Z,99421.45
2018-03-31T08:49:47.463Z,99422.10
2018-03-31T08:52:15.052Z,99421.96
2018-03-31T08:54:42.608Z,99413.92
2018-03-31T08:57:10.174Z,99418.80
2018-03-31T08:59:37.721Z,99418.72
2018-03-31T09:02:05.282Z,99412.78
2018-03-31T09:04:32.810Z,99414.86
2018-03-31T09:07:00.724Z,99413.55
2018-03-31T09:09:28.294Z,99409.95
2018-03-31T09:11:55.868Z,99412.26
2018-03-31T09:14:23.391Z,99415.09
2018-03-31T09:16:50.910Z,99407.47
2018-03-31T09:19:19.257Z,99414.59
2018-03-31T09:21:47.007Z,99411.14
2018-03-31T09:24:14.594Z,99410.08
2018-03-31T09:26:42.258Z,99407.03
2018-03-31T09:29:09.837Z,99407.63
2018-03-31T09:31:37.375Z,99402.77
2018-03-31T09:34:05.022Z,99407.72
2018-03-31T09:36:32.724Z,99407.64
2018-03-31T09:39:00.270Z,99409.73
2018-03-31T09:41:27.911Z,99396.98
2018-03-31T09:43:55.500Z,99403.98
2018-03-31T09:46:23.039Z,99405.49
2018-03-31T09:48:50.655Z,99404.94
2018-03-31T09:51:18.357Z,99404.70
2018-03-31T09:53:46.011Z,99400.56
2018-03-31T09:56:13.574Z,99414.51
2018-03-31T09:58:41.101Z,99412.03
2018-03-31T10:01:09.433Z,99407.39
2018-03-31T10:03:37.091Z,99414.20
2018-03-31T10:06:04.724Z,99411.70
2018-03-31T10:08:33.053Z,99419.53
2018-03-31T10:11:00.594Z,99418.03
2018-03-31T10:13:28.251Z,99410.98
2018-03-31T10:15:55.780Z,99418.05
2018-03-31T10:18:24.093Z,99415.78
2018-03-31T10:20:51.644Z,99421.82
2018-03-31T10:23:20.153Z,99417.52
2018-03-31T10:25:48.453Z,99421.13
2018-03-31T10:28:16.022Z,99422.06
2018-03-31T10:30:43.594Z,99424.66
2018-03-31T10:33:11.209Z,99421.89
2018-03-31T10:35:38.803Z,99422.28
2018-03-31T10:38:06.336Z,99429.90
2018-03-31T10:40:34.647Z,99425.69
2018-03-31T10:43:02.985Z,99423.23
2018-03-31T10:45:31.289Z,99425.64
2018-03-31T10:47:58.819Z,99419.64
2018-03-31T10:50:26.389Z,99405.67
2018-03-31T10:52:54.828Z,99418.22
2018-03-31T10:55:22.375Z,99427.63
2018-03-31T10:57:49.918Z,99420.86
2018-03-31T11:00:17.506Z,99419.77
2018-03-31T11:02:45.108Z,99411.88
2018-03-31T11:05:12.645Z,99408.56
2018-03-31T11:07:40.231Z,99401.99
2018-03-31T11:10:07.757Z,99413.31
2018-03-31T11:12:35.311Z,99406.05
2018-03-31T11:15:02.875Z,99413.47
2018-03-31T11:17:30.420Z,99417.99
2018-03-31T11:19:57.967Z,99423.63
2018-03-31T11:22:25.526Z,99408.38
2018-03-31T11:24:53.083Z,99412.76
2018-03-31T11:27:21.388Z,99417.59
2018-03-31T11:29:49.019Z,99416.63
2018-03-31T11:32:16.604Z,99422.27
2018-03-31T11:34:44.177Z,99413.56
2018-03-31T11:37:11.832Z,99424.80
2018-03-31T11:39:39.444Z,99428.01
2018-03-31T11:42:07.080Z,99420.08
2018-03-31T11:44:35.183Z,99423.83
2018-03-31T11:47:02.729Z,99420.75
2018-03-31T11:49:30.261Z,99418.91
2018-03-31T11:51:57.834Z,99419.73
2018-03-31T11:54:26.289Z,99415.19
2018-03-31T11:56:53.911Z,99409.59
2018-03-31T11:59:21.525Z,99416.63
2018-03-31T12:01:49.878Z,99416.56
2018-03-31T12:04:17.431Z,99412.16
2018-03-31T12:06:45.079Z,99416.95
2018-03-31T12:09:12.617Z,99409.63
2018-03-31T12:11:40.927Z,99416.43
2018-03-31T12:14:08.457Z,99415.59
2018-03-31T12:16:35.988Z,99423.53
2018-03-31T12:19:03.666Z,99420.23
2018-03-31T12:21:34.092Z,99422.22
2018-03-31T12:24:01.816Z,99417.09
2018-03-31T12:26:29.418Z,99422.27
2018-03-31T12:28:56.992Z,99430.24
2018-03-31T12:31:24.548Z,99426.02
2018-03-31T12:33:52.150Z,99423.79
2018-03-31T12:36:19.792Z,99428.59
2018-03-31T12:38:48.140Z,99423.67
2018-03-31T12:41:15.743Z,99425.34
2018-03-31T12:43:44.035Z,99419.35
2018-03-31T12:46:11.585Z,99423.73
2018-03-31T12:48:39.880Z,99421.05
2018-03-31T12:51:07.455Z,99413.77
2018-03-31T12:53:35.029Z,99416.77
2018-03-31T12:56:02.635Z,99410.03
2018-03-31T12:58:30.938Z,99409.84
2018-03-31T13:00:58.525Z,99408.96
2018-03-31T13:03:26.054Z,99403.67
2018-03-31T13:05:54.351Z,99403.74
2018-03-31T13:08:21.920Z,99395.44
2018-03-31T13:10:49.484Z,99397.84
2018-03-31T13:13:17.175Z,99400.78
2018-03-31T13:15:44.903Z,99403.70
2018-03-31T13:18:12.492Z,99396.03
2018-03-31T13:20:40.093Z,99399.47
2018-03-31T13:23:08.411Z,99402.50
2018-03-31T13:25:35.976Z,99386.39
2018-03-31T13:28:03.513Z,99390.61
2018-03-31T13:30:31.996Z,99386.38
2018-03-31T13:33:00.487Z,99392.88
2018-03-31T13:35:28.022Z,99380.92
2018-03-31T13:37:55.568Z,99390.37
2018-03-31T13:40:23.092Z,99386.59
2018-03-31T13:42:50.615Z,99382.13
2018-03-31T13:45:18.135Z,99382.48
2018-03-31T13:47:45.676Z,99376.45
2018-03-31T13:50:13.220Z,99374.67
2018-03-31T13:52:40.750Z,99373.14
2018-03-31T13:55:09.060Z,99364.97
2018-03-31T13:57:36.644Z,99372.29
2018-03-31T14:00:04.278Z,99369.27
2018-03-31T14:02:32.589Z,99371.34
2018-03-31T14:05:00.128Z,99373.80
2018-03-31T14:07:27.687Z,99372.25
2018-03-31T14:09:55.258Z,99375.30
2018-03-31T14:12:22.783Z,99378.01
2018-03-31T14:14:50.316Z,99384.37
2018-03-31T14:17:17.859Z,99378.98
2018-03-31T14:19:45.411Z,99376.09
2018-03-31T14:22:12.942Z,99383.44
2018-03-31T14:24:41.251Z,99373.88
2018-03-31T14:27:08.779Z,99375.13
2018-03-31T14:29:37.091Z,99379.83
2018-03-31T14:32:04.625Z,99379.94
2018-03-31T14:34:32.979Z,99370.86
2018-03-31T14:37:00.593Z,99375.30
2018-03-31T14:39:28.252Z,99377.31
2018-03-31T14:41:55.831Z,99385.04
2018-03-31T14:44:23.376Z,99379.72
2018-03-31T14:46:50.892Z,99384.51
2018-03-31T14:49:18.434Z,99386.08
2018-03-31T14:51:45.998Z,99389.27
2018-03-31T14:54:13.559Z,99382.61
2018-03-31T14:56:41.091Z,99377.37
2018-03-31T14:59:08.649Z,99376.76
2018-03-31T15:01:36.179Z,99380.09
2018-03-31T15:04:04.578Z,99371.21
2018-03-31T15:06:32.136Z,99375.41
2018-03-31T15:09:00.451Z,99379.09
2018-03-31T15:11:28.007Z,99382.31
2018-03-31T15:13:55.556Z,99385.45
2018-03-31T15:16:23.092Z,99391.40
2018-03-31T15:18:51.389Z,99391.33
2018-03-31T15:21:18.920Z,99384.02
2018-03-31T15:23:47.384Z,99383.80
2018-03-31T15:26:14.973Z,99384.54
2018-03-31T15:28:43.285Z,99386.09
2018-03-31T15:31:10.820Z,99388.89
2018-03-31T15:33:39.140Z,99391.12
2018-03-31T15:36:06.667Z,99390.63
2018-03-31T15:38:34.251Z,99390.38
2018-03-31T15:41:01.792Z,99392.45
2018-03-31T15:43:30.115Z,99390.11
2018-03-31T15:45:57.680Z,99390.80
2018-03-31T15:48:25.233Z,99392.03
2018-03-31T15:50:52.764Z,99388.78
2018-03-31T15:53:20.507Z,99383.27
2018-03-31T15:55:48.915Z,99379.42
2018-03-31T15:58:16.462Z,99375.94
2018-03-31T16:00:44.020Z,99382.44
2018-03-31T16:03:11.575Z,99382.08
2018-03-31T16:05:39.854Z,99386.97
2018-03-31T16:08:08.159Z,99392.97
2018-03-31T16:10:35.705Z,99386.87
2018-03-31T16:13:03.263Z,99391.83
2018-03-31T16:15:31.567Z,99395.63
2018-03-31T16:17:59.112Z,99392.72
2018-03-31T16:20:26.635Z,99393.08
2018-03-31T16:22:55.746Z,99397.03
2018-03-31T16:25:24.041Z,99402.53
2018-03-31T16:27:51.614Z,99399.69
2018-03-31T16:30:19.216Z,99406.28
2018-03-31T16:32:46.744Z,99402.70
2018-03-31T16:35:14.315Z,99409.66
2018-03-31T16:37:41.842Z,99402.70
2018-03-31T16:40:10.247Z,99393.89
2018-03-31T16:42:37.776Z,99402.90
2018-03-31T16:45:05.331Z,99402.69
2018-03-31T16:47:33.650Z,99403.73
2018-03-31T16:50:01.212Z,99402.27
2018-03-31T16:52:28.775Z,99407.58
2018-03-31T16:54:56.357Z,99410.16
2018-03-31T16:57:23.904Z,99411.08
2018-03-31T16:59:51.562Z,99408.42
2018-03-31T17:02:19.326Z,99415.36
2018-03-31T17:04:46.850Z,99415.82
2018-03-31T17:07:15.186Z,99419.37
2018-03-31T17:09:42.792Z,99420.69
2018-03-31T17:12:11.125Z,99418.28
2018-03-31T17:14:38.721Z,99422.58
2018-03-31T17:17:07.101Z,99420.37
2018-03-31T17:19:34.734Z,99424.92
2018-03-31T17:22:02.341Z,99418.86
2018-03-31T17:24:30.803Z,99420.78
2018-03-31T17:26:58.400Z,99430.23
2018-03-31T17:29:25.960Z,99427.08
2018-03-31T17:31:53.506Z,99426.94
2018-03-31T17:34:21.072Z,99434.15
2018-03-31T17:36:48.707Z,99438.17
2018-03-31T17:39:16.213Z,99436.10
2018-03-31T17:41:43.783Z,99441.05
2018-03-31T17:44:11.365Z,99443.83
2018-03-31T17:46:38.959Z,99444.39
2018-03-31T17:49:06.548Z,99451.03
2018-03-31T17:51:34.151Z,99450.30
2018-03-31T17:54:11.747Z,99452.06
2018-03-31T17:56:40.107Z,99448.28
2018-03-31T17:59:08.603Z,99447.50
2018-03-31T18:01:36.289Z,99449.64
2018-03-31T18:04:04.839Z,99448.37
2018-03-31T18:06:33.268Z,99451.38
2018-03-31T18:09:00.823Z,99456.50
2018-03-31T18:11:28.413Z,99459.08
2018-03-31T18:13:56.004Z,99460.35
2018-03-31T18:16:23.569Z,99461.69
2018-03-31T18:18:51.203Z,99466.44
2018-03-31T18:21:18.782Z,99470.36
2018-03-31T18:23:46.451Z,99473.41
2018-03-31T18:26:14.033Z,99474.27
2018-03-31T18:28:42.396Z,99475.59
2018-03-31T18:31:10.003Z,99478.18
2018-03-31T18:33:37.572Z,99485.06
2018-03-31T18:36:05.147Z,99484.66
2018-03-31T18:38:32.736Z,99483.37
2018-03-31T18:41:00.431Z,99483.41
2018-03-31T18:43:28.760Z,99488.19
2018-03-31T18:45:56.362Z,99488.20
2018-03-31T18:48:23.938Z,99493.88
2018-03-31T18:50:51.529Z,99496.50
2018-03-31T18:53:19.887Z,99497.37
2018-03-31T18:55:47.457Z,99503.44
2018-03-31T18:58:15.095Z,99515.55
2018-03-31T19:00:43.429Z,99510.34
2018-03-31T19:03:10.971Z,99521.61
2018-03-31T19:05:38.527Z,99519.42
2018-03-31T19:08:06.192Z,99529.34
2018-03-31T19:10:33.732Z,99535.42
2018-03-31T19:13:01.323Z,99534.53
2018-03-31T19:15:29.595Z,99537.05
2018-03-31T19:17:57.160Z,99549.13
2018-03-31T19:20:24.711Z,99559.22
2018-03-31T19:22:52.277Z,99571.34
2018-03-31T19:25:25.284Z,99575.64
2018-03-31T19:27:52.869Z,99584.17
2018-03-31T19:30:20.545Z,99595.56
2018-03-31T19:32:48.407Z,99612.86
2018-03-31T19:35:15.991Z,99621.49
2018-03-31T19:37:43.545Z,99618.43
2018-03-31T19:40:11.297Z,99625.72
2018-03-31T19:42:38.870Z,99637.31
2018-03-31T19:45:06.576Z,99641.63
2018-03-31T19:47:34.167Z,99652.79
2018-03-31T19:50:01.714Z,99657.90
2018-03-31T19:52:29.523Z,99658.70
2018-03-31T19:54:57.097Z,99665.94
2018-03-31T19:57:24.654Z,99668.91
2018-03-31T19:59:52.188Z,99669.23
2018-03-31T20:02:19.911Z,99677.80
2018-03-31T20:04:57.913Z,99680.35
2018-03-31T20:07:25.704Z,99684.97
2018-03-31T20:09:53.315Z,99687.49
2018-03-31T20:12:21.741Z,99692.23
2018-03-31T20:14:49.323Z,99697.33
2018-03-31T20:17:22.384Z,99693.42
2018-03-31T20:19:49.970Z,99704.66
2018-03-31T20:22:17.582Z,99705.09
2018-03-31T20:24:51.606Z,99705.02
2018-03-31T20:27:23.032Z,99707.06
2018-03-31T20:29:51.418Z,99707.06
2018-03-31T20:32:19.133Z,99709.56
2018-03-31T20:34:46.695Z,99716.33
2018-03-31T20:37:14.739Z,99711.17
2018-03-31T20:39:47.048Z,99707.38
2018-03-31T20:42:14.689Z,99708.23
2018-03-31T20:44:45.616Z,99701.27
2018-03-31T20:47:13.239Z,99702.60
2018-03-31T20:49:41.559Z,99698.25
2018-03-31T20:52:09.153Z,99695.28
2018-03-31T20:54:36.682Z,99701.57
2018-03-31T20:57:04.287Z,99700.84
2018-03-31T20:59:31.877Z,99700.72
2018-03-31T21:01:59.487Z,99704.03
2018-03-31T21:04:27.088Z,99697.86
2018-03-31T21:06:54.942Z,99704.20
2018-03-31T21:09:22.467Z,99700.05
2018-03-31T21:11:50.810Z,99701.86
2018-03-31T21:14:18.358Z,99709.88
2018-03-31T21:16:45.914Z,99705.84
2018-03-31T21:19:17.971Z,99704.63
2018-03-31T21:21:45.543Z,99708.67
2018-03-31T21:24:14.011Z,99717.32
2018-03-31T21:26:44.552Z,99717.23
2018-03-31T21:29:12.122Z,99715.86
2018-03-31T21:31:42.379Z,99715.00
2018-03-31T21:34:12.361Z,99720.64
2018-03-31T21:36:39.887Z,99713.28
2018-03-31T21:39:07.603Z,99718.28
2018-03-31T21:41:35.125Z,99711.47
2018-03-31T21:44:03.440Z,99710.91
2018-03-31T21:46:31.055Z,99716.60
2018-03-31T21:48:59.359Z,99718.61
2018-03-31T21:51:26.933Z,99730.20
2018-03-31T21:53:54.471Z,99739.16
2018-03-31T21:56:22.787Z,99742.25
2018-03-31T21:58:50.362Z,99738.85
2018-03-31T22:01:17.978Z,99738.54
2018-03-31T22:03:46.314Z,99735.45
2018-03-31T22:06:13.879Z,99736.23
2018-03-31T22:08:41.411Z,99733.17
2018-03-31T22:11:09.040Z,99736.61
2018-03-31T22:13:42.087Z,99738.03
2018-03-31T22:16:09.708Z,99735.41
2018-03-31T22:18:39.543Z,99731.76
2018-03-31T22:21:09.068Z,99738.64
2018-03-31T22:23:36.593Z,99736.41
2018-03-31T22:26:04.166Z,99738.12
2018-03-31T22:28:31.691Z,99736.88
2018-03-31T22:31:00.055Z,99738.30
2018-03-31T22:33:27.605Z,99739.02
2018-03-31T22:35:55.128Z,99735.24
2018-03-31T22:38:22.750Z,99738.12
2018-03-31T22:40:52.190Z,99738.34
2018-03-31T22:43:21.424Z,99734.37
2018-03-31T22:45:48.971Z,99732.27
2018-03-31T22:48:16.575Z,99738.17
2018-03-31T22:50:44.094Z,99735.33
2018-03-31T22:53:11.746Z,99736.36
2018-03-31T22:55:39.389Z,99741.95
2018-03-31T23:00:41.151Z,99736.44
2018-03-31T23:03:10.348Z,99737.56
2018-03-31T23:05:38.641Z,99744.25
2018-03-31T23:08:06.937Z,99744.73
2018-03-31T23:10:35.238Z,99736.51
2018-03-31T23:13:02.835Z,99737.52
2018-03-31T23:15:30.415Z,99736.94
2018-03-31T23:17:58.715Z,99734.83
2018-03-31T23:20:26.250Z,99721.78
2018-03-31T23:22:54.555Z,99711.51
2018-03-31T23:25:22.092Z,99717.80
2018-03-31T23:27:50.423Z,99721.77
2018-03-31T23:30:17.966Z,99726.41
2018-03-31T23:32:45.524Z,99741.15
2018-03-31T23:35:13.054Z,99740.62
2018-03-31T23:37:41.342Z,99748.32
2018-03-31T23:40:08.915Z,99750.81
2018-03-31T23:42:36.484Z,99752.09
2018-03-31T23:45:04.007Z,99760.93
2018-03-31T23:47:31.558Z,99747.75
2018-03-31T23:49:59.085Z,99746.69
2018-03-31T23:52:26.628Z,99738.89
2018-03-31T23:54:54.181Z,99736.94
2018-03-31T23:57:22.500Z,99726.42
2018-03-31T23:59:50.021Z,99735.92
